createdAt,value
2022-12-31T00:02:16.527Z,50.83
2022-12-31T00:04:47.194Z,51.02
2022-12-31T00:07:18.069Z,51.01
2022-12-31T00:09:48.824Z,51.26
2022-12-31T00:12:19.439Z,51.42
2022-12-31T00:14:50.077Z,51.45
2022-12-31T00:17:20.759Z,51.78
2022-12-31T00:19:51.354Z,52.11
2022-12-31T00:22:21.929Z,52.62
2022-12-31T00:24:52.875Z,52.53
2022-12-31T00:27:23.849Z,52.75
2022-12-31T00:29:57.161Z,52.49
2022-12-31T00:32:30.571Z,50.80
2022-12-31T00:35:01.775Z,51.41
2022-12-31T00:37:32.414Z,52.16
2022-12-31T00:40:03.004Z,51.66
2022-12-31T00:42:33.921Z,51.79
2022-12-31T00:45:04.823Z,51.84
2022-12-31T00:47:35.696Z,51.72
2022-12-31T00:50:06.690Z,52.08
2022-12-31T00:52:37.704Z,51.95
2022-12-31T00:55:08.819Z,51.80
2022-12-31T00:57:39.801Z,51.62
2022-12-31T01:00:10.795Z,52.24
2022-12-31T01:02:41.492Z,52.26
2022-12-31T01:05:12.204Z,52.74
2022-12-31T01:07:42.778Z,52.53
2022-12-31T01:10:13.899Z,52.65
2022-12-31T01:12:44.457Z,52.90
2022-12-31T01:15:15.667Z,52.89
2022-12-31T01:17:46.587Z,52.55
2022-12-31T01:20:17.888Z,52.88
2022-12-31T01:22:48.459Z,53.14
2022-12-31T01:25:19.601Z,53.21
2022-12-31T01:27:50.331Z,53.75
2022-12-31T01:30:21.512Z,53.88
2022-12-31T01:32:52.241Z,53.52
2022-12-31T01:35:22.937Z,53.51
2022-12-31T01:37:53.522Z,53.54
2022-12-31T01:40:24.138Z,53.85
2022-12-31T01:42:58.389Z,53.95
2022-12-31T01:45:28.927Z,53.60
2022-12-31T01:48:01.550Z,53.78
2022-12-31T01:50:37.591Z,54.07
2022-12-31T01:53:09.531Z,53.83
2022-12-31T01:55:45.503Z,53.49
2022-12-31T01:58:22.046Z,53.46
2022-12-31T02:00:54.775Z,53.85
2022-12-31T02:03:26.399Z,53.56
2022-12-31T02:06:17.111Z,53.63
2022-12-31T02:08:47.968Z,53.40
2022-12-31T02:11:26.924Z,53.14
2022-12-31T02:14:00.931Z,53.41
2022-12-31T02:16:57.589Z,53.54
2022-12-31T02:19:46.106Z,53.42
2022-12-31T02:22:35.300Z,53.21
2022-12-31T02:25:31.812Z,52.85
2022-12-31T02:28:17.934Z,52.94
2022-12-31T02:30:51.931Z,52.85
2022-12-31T02:33:34.481Z,52.75
2022-12-31T02:36:08.015Z,52.28
2022-12-31T02:38:41.638Z,52.56
2022-12-31T02:41:36.773Z,52.05
2022-12-31T02:44:27.828Z,51.99
2022-12-31T02:46:58.528Z,52.46
2022-12-31T02:49:29.663Z,52.56
2022-12-31T02:52:03.053Z,52.27
2022-12-31T02:54:56.171Z,52.24
2022-12-31T02:57:29.796Z,52.23
2022-12-31T03:00:23.959Z,52.15
2022-12-31T03:02:55.862Z,52.53
2022-12-31T03:05:29.288Z,52.57
2022-12-31T03:07:59.908Z,52.49
2022-12-31T03:10:30.464Z,52.39
2022-12-31T03:13:01.211Z,52.13
2022-12-31T03:15:33.436Z,52.02
2022-12-31T03:18:06.187Z,52.46
2022-12-31T03:21:02.657Z,52.28
2022-12-31T03:23:34.446Z,52.47
2022-12-31T03:26:11.529Z,52.10
2022-12-31T03:28:43.978Z,52.55
2022-12-31T03:31:14.767Z,52.54
2022-12-31T03:33:45.741Z,52.21
2022-12-31T03:36:16.683Z,52.17
2022-12-31T03:38:51.186Z,52.22
2022-12-31T03:41:23.220Z,52.48
2022-12-31T03:43:53.969Z,51.90
2022-12-31T03:46:24.916Z,52.45
2022-12-31T03:48:55.529Z,52.20
2022-12-31T03:51:26.645Z,52.04
2022-12-31T03:53:57.286Z,52.47
2022-12-31T03:56:27.875Z,52.21
2022-12-31T03:58:58.485Z,52.63
2022-12-31T04:01:29.092Z,52.27
2022-12-31T04:03:59.825Z,52.00
2022-12-31T04:06:30.589Z,52.59
2022-12-31T04:09:01.509Z,52.13
2022-12-31T04:11:32.021Z,52.37
2022-12-31T04:14:03.931Z,52.48
2022-12-31T04:16:34.631Z,52.35
2022-12-31T04:19:05.479Z,52.28
2022-12-31T04:21:35.971Z,52.69
2022-12-31T04:24:07.246Z,52.87
2022-12-31T04:26:37.816Z,53.22
2022-12-31T04:29:08.841Z,53.17
2022-12-31T04:31:40.134Z,54.32
2022-12-31T04:34:11.300Z,54.41
2022-12-31T04:36:41.993Z,53.70
2022-12-31T04:39:12.793Z,53.58
2022-12-31T04:41:43.572Z,53.72
2022-12-31T04:44:14.547Z,53.85
2022-12-31T04:46:45.756Z,53.45
2022-12-31T04:49:16.401Z,52.98
2022-12-31T04:51:47.025Z,52.77
2022-12-31T04:54:18.022Z,52.87
2022-12-31T04:56:49.087Z,52.56
2022-12-31T04:59:19.876Z,53.00
2022-12-31T05:01:51.216Z,52.80
2022-12-31T05:04:21.877Z,52.71
2022-12-31T05:06:52.480Z,52.07
2022-12-31T05:09:25.509Z,52.55
2022-12-31T05:11:56.980Z,53.12
2022-12-31T05:14:27.565Z,53.31
2022-12-31T05:16:59.751Z,54.09
2022-12-31T05:19:30.283Z,54.33
2022-12-31T05:22:19.095Z,54.15
2022-12-31T05:24:49.595Z,52.79
2022-12-31T05:27:20.544Z,52.16
2022-12-31T05:29:51.382Z,51.06
2022-12-31T05:32:22.014Z,50.59
2022-12-31T05:34:52.847Z,50.40
2022-12-31T05:37:23.885Z,49.18
2022-12-31T05:39:54.535Z,48.64
2022-12-31T05:42:25.911Z,48.08
2022-12-31T05:44:56.780Z,47.30
2022-12-31T05:47:28.824Z,47.19
2022-12-31T05:49:59.270Z,47.00
2022-12-31T05:52:30.268Z,46.10
2022-12-31T05:55:01.305Z,45.97
2022-12-31T05:57:32.335Z,45.37
2022-12-31T06:00:02.904Z,45.25
2022-12-31T06:02:43.576Z,44.68
2022-12-31T06:05:14.252Z,44.65
2022-12-31T06:07:45.333Z,44.47
2022-12-31T06:10:16.168Z,43.99
2022-12-31T06:12:46.806Z,44.39
2022-12-31T06:15:17.928Z,43.68
2022-12-31T06:17:48.619Z,44.03
2022-12-31T06:20:19.527Z,43.30
2022-12-31T06:22:50.492Z,43.15
2022-12-31T06:25:21.099Z,42.70
2022-12-31T06:27:51.800Z,42.54
2022-12-31T06:30:22.643Z,42.72
2022-12-31T06:32:53.304Z,42.65
2022-12-31T06:35:24.087Z,42.84
2022-12-31T06:37:55.089Z,42.07
2022-12-31T06:40:25.682Z,41.76
2022-12-31T06:42:59.915Z,41.96
2022-12-31T06:45:31.037Z,41.57
2022-12-31T06:48:01.689Z,41.56
2022-12-31T06:50:32.253Z,41.25
2022-12-31T06:53:03.257Z,41.49
2022-12-31T06:55:34.084Z,41.33
2022-12-31T06:58:05.776Z,40.99
2022-12-31T07:00:36.390Z,40.74
2022-12-31T07:03:19.075Z,40.92
2022-12-31T07:06:04.173Z,41.10
2022-12-31T07:08:37.488Z,40.86
2022-12-31T07:11:13.076Z,40.83
2022-12-31T07:13:51.372Z,45.66
2022-12-31T07:16:22.073Z,47.49
2022-12-31T07:19:01.868Z,48.71
2022-12-31T07:21:35.452Z,50.28
2022-12-31T07:24:08.421Z,50.69
2022-12-31T07:26:38.902Z,51.16
2022-12-31T07:29:18.872Z,51.64
2022-12-31T07:32:01.986Z,51.75
2022-12-31T07:34:35.713Z,52.35
2022-12-31T07:37:16.751Z,52.16
2022-12-31T07:40:10.200Z,52.49
2022-12-31T07:42:53.056Z,52.63
2022-12-31T07:45:29.124Z,52.70
2022-12-31T07:48:02.762Z,52.57
2022-12-31T07:50:33.843Z,53.02
2022-12-31T07:53:05.625Z,52.79
2022-12-31T07:55:36.231Z,53.07
2022-12-31T07:58:33.210Z,53.25
2022-12-31T08:01:04.955Z,53.52
2022-12-31T08:03:43.534Z,52.65
2022-12-31T08:06:19.258Z,53.08
2022-12-31T08:09:03.292Z,53.31
2022-12-31T08:11:45.790Z,52.84
2022-12-31T08:14:17.121Z,52.55
2022-12-31T08:16:48.105Z,53.06
2022-12-31T08:19:35.117Z,52.06
2022-12-31T08:22:15.795Z,48.72
2022-12-31T08:24:56.909Z,46.98
2022-12-31T08:27:37.787Z,46.60
2022-12-31T08:30:12.892Z,45.95
2022-12-31T08:32:48.553Z,48.31
2022-12-31T08:35:19.175Z,47.84
2022-12-31T08:37:52.601Z,48.55
2022-12-31T08:40:44.552Z,50.46
2022-12-31T08:43:26.709Z,51.46
2022-12-31T08:45:58.627Z,51.88
2022-12-31T08:48:32.299Z,51.46
2022-12-31T08:51:03.477Z,53.98
2022-12-31T08:53:36.643Z,54.15
2022-12-31T08:56:12.302Z,54.50
2022-12-31T08:58:55.927Z,55.79
2022-12-31T09:01:29.043Z,53.85
2022-12-31T09:03:59.729Z,54.97
2022-12-31T09:06:35.840Z,54.60
2022-12-31T09:09:18.338Z,53.73
2022-12-31T09:11:49.011Z,54.35
2022-12-31T09:14:38.183Z,54.71
2022-12-31T09:17:15.052Z,56.24
2022-12-31T09:19:45.692Z,54.52
2022-12-31T09:22:16.376Z,56.34
2022-12-31T09:24:47.001Z,54.70
2022-12-31T09:27:21.180Z,55.78
2022-12-31T09:30:09.697Z,55.22
2022-12-31T09:33:03.104Z,54.08
2022-12-31T09:35:40.298Z,54.01
2022-12-31T09:38:11.881Z,53.64
2022-12-31T09:40:48.665Z,54.10
2022-12-31T09:43:37.356Z,55.12
2022-12-31T09:46:17.136Z,54.47
2022-12-31T09:48:47.741Z,54.08
2022-12-31T09:51:25.697Z,54.63
2022-12-31T09:54:14.795Z,55.56
2022-12-31T09:57:01.225Z,53.97
2022-12-31T09:59:34.829Z,54.89
2022-12-31T10:02:19.032Z,55.18
2022-12-31T10:05:08.065Z,55.15
2022-12-31T10:07:52.795Z,55.17
2022-12-31T10:10:42.033Z,54.99
2022-12-31T10:13:30.810Z,54.96
2022-12-31T10:16:19.618Z,54.54
2022-12-31T10:18:50.223Z,53.65
2022-12-31T10:21:44.004Z,53.49
2022-12-31T10:24:29.933Z,53.03
2022-12-31T10:27:14.340Z,53.07
2022-12-31T10:29:48.490Z,51.79
2022-12-31T10:32:29.391Z,51.96
2022-12-31T10:35:01.886Z,53.12
2022-12-31T10:37:45.668Z,52.39
2022-12-31T10:40:32.703Z,52.16
2022-12-31T10:43:21.484Z,52.00
2022-12-31T10:46:07.190Z,51.93
2022-12-31T10:48:50.009Z,52.17
2022-12-31T10:51:39.626Z,52.35
2022-12-31T10:54:20.877Z,52.60
2022-12-31T10:57:10.552Z,53.04
2022-12-31T10:59:59.279Z,52.46
2022-12-31T11:02:33.007Z,52.52
2022-12-31T11:05:25.185Z,52.69
2022-12-31T11:08:14.377Z,52.73
2022-12-31T11:10:55.320Z,52.90
2022-12-31T11:13:44.814Z,52.57
2022-12-31T11:16:22.217Z,53.10
2022-12-31T11:19:11.159Z,53.28
2022-12-31T11:21:49.963Z,52.96
2022-12-31T11:24:43.786Z,52.57
2022-12-31T11:27:32.698Z,52.90
2022-12-31T11:30:06.461Z,53.23
2022-12-31T11:32:52.389Z,53.31
2022-12-31T11:35:43.041Z,53.49
2022-12-31T11:38:23.380Z,53.74
2022-12-31T11:40:55.623Z,54.32
2022-12-31T11:43:26.329Z,55.57
2022-12-31T11:46:20.493Z,55.74
2022-12-31T11:49:09.177Z,55.90
2022-12-31T11:51:50.411Z,56.70
2022-12-31T11:54:33.181Z,56.45
2022-12-31T11:57:16.168Z,56.60
2022-12-31T11:59:47.045Z,57.21
2022-12-31T12:02:27.577Z,56.80
2022-12-31T12:05:05.033Z,57.48
2022-12-31T12:07:41.445Z,57.51
2022-12-31T12:10:38.839Z,57.15
2022-12-31T12:13:15.079Z,57.04
2022-12-31T12:15:48.967Z,57.68
2022-12-31T12:18:38.434Z,57.68
2022-12-31T12:21:11.819Z,57.93
2022-12-31T12:23:44.043Z,58.43
2022-12-31T12:26:32.357Z,58.12
2022-12-31T12:29:11.014Z,57.94
2022-12-31T12:31:42.586Z,57.90
2022-12-31T12:34:26.840Z,58.33
2022-12-31T12:36:57.624Z,58.53
2022-12-31T12:39:30.363Z,58.92
2022-12-31T12:42:05.544Z,58.85
2022-12-31T12:44:37.328Z,58.82
2022-12-31T12:47:09.217Z,59.58
2022-12-31T12:49:41.577Z,60.54
2022-12-31T12:52:27.729Z,59.88
2022-12-31T12:54:58.381Z,60.23
2022-12-31T12:57:29.417Z,60.93
2022-12-31T13:00:00.054Z,59.94
2022-12-31T13:02:50.310Z,60.28
2022-12-31T13:05:27.664Z,62.04
2022-12-31T13:08:11.925Z,61.96
2022-12-31T13:11:07.898Z,61.43
2022-12-31T13:13:56.628Z,60.66
2022-12-31T13:16:27.176Z,60.45
2022-12-31T13:19:16.525Z,59.96
2022-12-31T13:21:51.065Z,59.79
2022-12-31T13:24:29.019Z,58.96
2022-12-31T13:26:59.831Z,59.41
2022-12-31T13:29:33.010Z,58.92
2022-12-31T13:32:06.555Z,58.25
2022-12-31T13:34:41.836Z,58.39
2022-12-31T13:37:24.442Z,58.46
2022-12-31T13:39:59.773Z,58.97
2022-12-31T13:42:38.209Z,59.50
2022-12-31T13:45:20.841Z,59.52
2022-12-31T13:47:54.525Z,59.40
2022-12-31T13:50:31.436Z,59.25
2022-12-31T13:53:04.946Z,58.69
2022-12-31T13:56:03.545Z,58.61
2022-12-31T13:58:34.880Z,58.65
2022-12-31T14:01:11.922Z,58.71
2022-12-31T14:03:49.522Z,58.32
2022-12-31T14:06:36.445Z,58.64
2022-12-31T14:09:07.805Z,58.33
2022-12-31T14:11:47.521Z,57.89
2022-12-31T14:14:21.274Z,58.00
2022-12-31T14:16:52.000Z,57.41
2022-12-31T14:19:31.109Z,57.90
2022-12-31T14:22:06.895Z,57.46
2022-12-31T14:24:48.502Z,57.43
2022-12-31T14:27:24.898Z,57.05
2022-12-31T14:30:03.591Z,57.12
2022-12-31T14:32:57.545Z,56.71
2022-12-31T14:35:37.372Z,56.70
2022-12-31T14:38:14.498Z,56.88
2022-12-31T14:40:52.536Z,56.56
2022-12-31T14:43:41.332Z,57.07
2022-12-31T14:46:15.687Z,56.48
2022-12-31T14:49:08.547Z,56.43
2022-12-31T14:51:39.236Z,56.79
2022-12-31T14:54:29.424Z,56.15
2022-12-31T14:57:00.246Z,56.67
2022-12-31T14:59:38.728Z,56.12
2022-12-31T15:02:31.256Z,56.53
2022-12-31T15:05:21.944Z,56.05
2022-12-31T15:08:04.658Z,56.32
2022-12-31T15:10:50.080Z,56.17
2022-12-31T15:13:38.977Z,56.31
2022-12-31T15:16:15.771Z,55.81
2022-12-31T15:18:55.103Z,55.62
2022-12-31T15:21:28.581Z,55.91
2022-12-31T15:23:59.324Z,55.99
2022-12-31T15:26:36.135Z,55.63
2022-12-31T15:29:07.904Z,55.86
2022-12-31T15:31:46.433Z,55.64
2022-12-31T15:34:43.470Z,55.72
2022-12-31T15:37:37.004Z,55.27
2022-12-31T15:40:22.657Z,55.60
2022-12-31T15:43:00.108Z,55.05
2022-12-31T15:45:35.392Z,55.55
2022-12-31T15:48:11.137Z,55.02
2022-12-31T15:50:43.704Z,54.88
2022-12-31T15:53:28.291Z,55.51
2022-12-31T15:56:00.539Z,55.78
2022-12-31T15:58:38.557Z,55.58
2022-12-31T16:01:09.618Z,56.10
2022-12-31T16:03:44.365Z,54.90
2022-12-31T16:06:16.511Z,53.74
2022-12-31T16:08:48.249Z,53.45
2022-12-31T16:11:19.656Z,52.98
2022-12-31T16:13:55.576Z,52.48
2022-12-31T16:16:27.480Z,52.29
2022-12-31T16:18:59.282Z,52.20
2022-12-31T16:21:34.377Z,51.67
2022-12-31T16:24:25.435Z,50.67
2022-12-31T16:26:57.926Z,50.45
2022-12-31T16:29:28.563Z,49.89
2022-12-31T16:31:59.474Z,49.98
2022-12-31T16:34:30.794Z,49.88
2022-12-31T16:37:05.823Z,48.75
2022-12-31T16:39:37.863Z,48.80
2022-12-31T16:42:17.314Z,48.54
2022-12-31T16:44:48.864Z,48.34
2022-12-31T16:47:24.665Z,48.44
2022-12-31T16:50:16.476Z,47.99
2022-12-31T16:52:49.372Z,47.91
2022-12-31T16:55:22.403Z,47.43
2022-12-31T16:57:57.164Z,47.67
2022-12-31T17:00:28.517Z,47.90
2022-12-31T17:03:18.110Z,47.60
2022-12-31T17:05:57.841Z,47.19
2022-12-31T17:08:30.165Z,46.66
2022-12-31T17:11:00.819Z,46.82
2022-12-31T17:13:33.482Z,46.45
2022-12-31T17:16:04.387Z,46.39
2022-12-31T17:18:39.377Z,46.36
2022-12-31T17:21:11.558Z,46.51
2022-12-31T17:23:43.315Z,46.44
2022-12-31T17:26:23.634Z,46.38
2022-12-31T17:28:55.693Z,46.63
2022-12-31T17:31:40.391Z,46.16
2022-12-31T17:34:16.995Z,45.86
2022-12-31T17:37:01.358Z,46.07
2022-12-31T17:39:44.212Z,45.75
2022-12-31T17:42:15.681Z,45.21
2022-12-31T17:44:46.501Z,45.15
2022-12-31T17:47:17.542Z,45.28
2022-12-31T17:49:48.613Z,45.17
2022-12-31T17:52:19.191Z,45.12
2022-12-31T17:54:49.688Z,45.02
2022-12-31T17:57:26.344Z,44.57
2022-12-31T17:59:57.314Z,44.54
2022-12-31T18:02:28.031Z,44.80
2022-12-31T18:04:59.076Z,44.85
2022-12-31T18:07:29.652Z,44.63
2022-12-31T18:10:00.172Z,44.33
2022-12-31T18:12:31.605Z,44.51
2022-12-31T18:15:02.195Z,44.40
2022-12-31T18:17:34.815Z,44.03
2022-12-31T18:20:06.366Z,44.30
2022-12-31T18:22:37.800Z,43.98
2022-12-31T18:25:08.899Z,44.04
2022-12-31T18:27:41.385Z,44.21
2022-12-31T18:30:12.729Z,43.65
2022-12-31T18:32:43.899Z,43.69
2022-12-31T18:35:40.752Z,44.03
2022-12-31T18:38:13.879Z,43.49
2022-12-31T18:40:48.076Z,43.53
2022-12-31T18:43:19.692Z,43.92
2022-12-31T18:45:50.767Z,43.47
2022-12-31T18:48:21.455Z,43.81
2022-12-31T18:50:52.387Z,43.51
2022-12-31T18:53:24.141Z,43.58
2022-12-31T18:55:56.388Z,43.31
2022-12-31T18:58:26.977Z,43.72
2022-12-31T19:00:57.670Z,43.50
2022-12-31T19:03:29.656Z,44.10
2022-12-31T19:06:00.268Z,44.27
2022-12-31T19:08:30.929Z,44.21
2022-12-31T19:11:01.595Z,43.85
2022-12-31T19:13:32.806Z,43.96
2022-12-31T19:16:03.648Z,44.32
2022-12-31T19:18:34.520Z,43.96
2022-12-31T19:21:05.620Z,44.12
2022-12-31T19:23:36.249Z,43.82
2022-12-31T19:26:06.825Z,44.26
2022-12-31T19:28:37.397Z,43.85
2022-12-31T19:31:07.907Z,43.47
2022-12-31T19:33:38.563Z,43.67
2022-12-31T19:36:15.739Z,44.08
2022-12-31T19:38:46.951Z,43.51
2022-12-31T19:41:19.045Z,43.48
2022-12-31T19:43:49.801Z,43.69
2022-12-31T19:46:20.967Z,43.42
2022-12-31T19:48:51.964Z,43.31
2022-12-31T19:51:23.436Z,43.15
2022-12-31T19:53:53.888Z,43.72
2022-12-31T19:56:24.364Z,43.46
2022-12-31T19:58:55.204Z,43.29
2022-12-31T20:01:26.628Z,43.49
2022-12-31T20:03:58.159Z,43.63
2022-12-31T20:06:28.759Z,43.33
2022-12-31T20:08:59.452Z,42.95
2022-12-31T20:11:30.048Z,43.10
2022-12-31T20:14:00.723Z,43.29
2022-12-31T20:16:35.420Z,43.07
2022-12-31T20:19:07.506Z,43.38
2022-12-31T20:21:38.459Z,42.76
2022-12-31T20:24:09.229Z,43.14
2022-12-31T20:26:39.841Z,42.90
2022-12-31T20:29:10.517Z,43.27
2022-12-31T20:31:41.790Z,43.41
2022-12-31T20:34:12.877Z,42.90
2022-12-31T20:36:43.371Z,43.34
2022-12-31T20:39:13.995Z,42.83
2022-12-31T20:41:44.524Z,43.48
2022-12-31T20:44:15.348Z,43.23
2022-12-31T20:46:45.902Z,43.42
2022-12-31T20:49:23.644Z,43.14
2022-12-31T20:52:02.248Z,43.27
2022-12-31T20:54:33.374Z,43.29
2022-12-31T20:57:04.536Z,43.37
2022-12-31T20:59:35.591Z,43.17
2022-12-31T21:02:22.891Z,43.59
2022-12-31T21:04:57.248Z,43.16
2022-12-31T21:07:27.859Z,43.05
2022-12-31T21:09:58.512Z,43.49
2022-12-31T21:12:47.876Z,43.55
2022-12-31T21:15:18.463Z,43.10
2022-12-31T21:17:49.568Z,43.00
2022-12-31T21:20:20.428Z,42.91
2022-12-31T21:22:51.497Z,42.68
2022-12-31T21:25:22.636Z,42.68
2022-12-31T21:27:53.816Z,42.69
2022-12-31T21:30:24.403Z,43.10
2022-12-31T21:32:55.066Z,42.94
2022-12-31T21:35:45.833Z,43.00
2022-12-31T21:38:16.800Z,42.50
2022-12-31T21:40:47.627Z,42.21
2022-12-31T21:43:18.835Z,42.00
2022-12-31T21:45:49.361Z,41.80
2022-12-31T21:48:23.410Z,42.04
2022-12-31T21:50:55.155Z,41.99
2022-12-31T21:53:34.172Z,42.24
2022-12-31T21:56:10.746Z,41.85
2022-12-31T21:58:46.424Z,41.72
2022-12-31T22:01:39.914Z,41.80
2022-12-31T22:04:35.171Z,42.22
2022-12-31T22:07:01.451Z,42.09
2022-12-31T22:09:32.160Z,42.27
2022-12-31T22:12:02.684Z,42.05
2022-12-31T22:14:33.287Z,42.13
2022-12-31T22:17:03.755Z,42.31
2022-12-31T22:19:48.701Z,42.24
2022-12-31T22:22:24.828Z,42.58
2022-12-31T22:24:55.481Z,42.09
2022-12-31T22:27:28.254Z,42.24
2022-12-31T22:30:00.338Z,42.23
2022-12-31T22:32:32.511Z,42.00
2022-12-31T22:35:03.138Z,42.21
2022-12-31T22:37:56.134Z,42.27
2022-12-31T22:40:24.221Z,42.23
2022-12-31T22:42:54.809Z,42.63
2022-12-31T22:45:25.921Z,42.27
2022-12-31T22:47:56.783Z,42.16
2022-12-31T22:50:27.924Z,42.47
2022-12-31T22:52:58.398Z,42.10
2022-12-31T22:55:29.284Z,42.37
2022-12-31T22:57:59.880Z,42.16
2022-12-31T23:00:40.334Z,42.43
2022-12-31T23:03:10.977Z,42.71
2022-12-31T23:05:42.159Z,43.42
2022-12-31T23:08:20.596Z,44.01
2022-12-31T23:11:07.109Z,44.52
2022-12-31T23:13:58.254Z,45.05
2022-12-31T23:16:48.274Z,45.28
2022-12-31T23:19:36.777Z,46.03
2022-12-31T23:22:25.275Z,45.90
2022-12-31T23:24:55.814Z,46.57
2022-12-31T23:27:26.463Z,46.90
2022-12-31T23:29:56.989Z,47.34
2022-12-31T23:32:27.572Z,47.21
2022-12-31T23:34:59.050Z,47.96
2022-12-31T23:37:29.914Z,48.27
2022-12-31T23:40:01.016Z,49.31
2022-12-31T23:42:31.626Z,51.33
2022-12-31T23:45:02.117Z,52.25
2022-12-31T23:47:33.198Z,53.61
2022-12-31T23:50:04.072Z,54.01
2022-12-31T23:52:35.015Z,53.92
2022-12-31T23:55:05.629Z,55.04
2022-12-31T23:57:36.302Z,54.67
